Time;durP1;ratioP1;P1;durP2;ratioP2;P2;SDS_P1;SDS_P2;PMS_P1;PMS_P2;Temp;Humidity;BMP_temperature;BMP_pressure;BME280_temperature;BME280_humidity;BME280_pressure;Samples;Min_cycle;Max_cycle;Signal;HPM_P1;HPM_P2
2023/02/05 00:00:06;;;;;;;1999.90;999.90;;;8.10;99.90;;;;;;5091613;28;20077;-78
2023/02/05 00:02:32;;;;;;;1999.90;999.90;;;8.10;99.90;;;;;;5091579;28;20532;-71
2023/02/05 00:04:57;;;;;;;1999.90;999.90;;;8.10;99.90;;;;;;5091830;28;20031;-71
2023/02/05 00:07:23;;;;;;;1999.90;999.90;;;8.10;99.90;;;;;;5091810;28;20031;-71
2023/02/05 00:09:49;;;;;;;1999.90;999.90;;;8.10;99.90;;;;;;5090279;28;20070;-78
2023/02/05 00:12:15;;;;;;;1999.90;999.90;;;8.10;99.90;;;;;;5093314;28;20035;-78
2023/02/05 00:14:40;;;;;;;1999.90;999.90;;;8.10;99.90;;;;;;5095371;28;20024;-71
2023/02/05 00:17:06;;;;;;;1999.90;999.90;;;8.10;99.90;;;;;;5094310;28;20039;-71
2023/02/05 00:19:31;;;;;;;1999.90;999.90;;;8.10;99.90;;;;;;5095795;28;20024;-71
2023/02/05 00:21:57;;;;;;;1999.90;999.90;;;8.10;99.90;;;;;;5095306;28;20028;-71
2023/02/05 00:24:23;;;;;;;1999.90;999.90;;;8.10;99.90;;;;;;5095481;28;20024;-78
2023/02/05 00:26:48;;;;;;;1999.90;999.90;;;8.10;99.90;;;;;;5095416;28;20388;-78
2023/02/05 00:29:14;;;;;;;1999.90;999.90;;;8.10;99.90;;;;;;5094891;28;20391;-71
2023/02/05 00:31:40;;;;;;;1999.90;999.90;;;8.00;99.90;;;;;;5095446;28;20032;-71
2023/02/05 00:34:06;;;;;;;1999.90;999.90;;;8.00;99.90;;;;;;5095224;28;20020;-71
2023/02/05 00:36:31;;;;;;;1999.90;999.90;;;8.00;99.90;;;;;;5094722;28;20370;-71
2023/02/05 00:38:57;;;;;;;1999.90;999.90;;;8.00;99.90;;;;;;5094418;28;20080;-78
2023/02/05 00:41:22;;;;;;;1999.90;999.90;;;8.00;99.90;;;;;;5076836;28;20028;-71
2023/02/05 00:43:48;;;;;;;1999.90;999.90;;;8.00;99.90;;;;;;5081537;28;20016;-71
2023/02/05 00:46:14;;;;;;;1999.90;999.90;;;7.90;99.90;;;;;;5086252;28;20412;-71
2023/02/05 00:48:41;;;;;;;1999.90;999.90;;;7.90;99.90;;;;;;5094280;28;20020;-78
2023/02/05 00:51:07;;;;;;;1999.90;999.90;;;7.90;99.90;;;;;;5095133;28;20452;-78
2023/02/05 00:53:33;;;;;;;1999.90;999.90;;;7.90;99.90;;;;;;5094986;28;20058;-71
2023/02/05 00:55:59;;;;;;;1999.90;999.90;;;7.90;99.90;;;;;;5094959;28;20048;-71
2023/02/05 00:58:24;;;;;;;1999.90;999.90;;;7.90;99.90;;;;;;5094673;28;20020;-71
2023/02/05 01:00:50;;;;;;;1999.90;999.90;;;7.90;99.90;;;;;;5094414;28;20028;-71
2023/02/05 01:03:17;;;;;;;1999.90;999.90;;;7.90;99.90;;;;;;5094860;28;20027;-78
2023/02/05 01:05:42;;;;;;;1999.90;999.90;;;7.90;99.90;;;;;;5094371;28;20028;-78
2023/02/05 01:08:10;;;;;;;1999.90;999.90;;;7.90;99.90;;;;;;5094214;28;20142;-71
2023/02/05 01:10:37;;;;;;;1999.90;999.90;;;7.90;99.90;;;;;;5093878;28;20035;-71
2023/02/05 01:13:04;;;;;;;1999.90;999.90;;;7.90;99.90;;;;;;5092535;28;20508;-71
2023/02/05 01:15:30;;;;;;;1999.90;999.90;;;7.90;99.90;;;;;;5094413;28;20348;-77
2023/02/05 01:17:58;;;;;;;1999.90;999.90;;;7.90;99.90;;;;;;5092292;28;20028;-78
2023/02/05 01:20:23;;;;;;;1999.90;999.90;;;7.90;99.90;;;;;;5093901;28;20063;-71
2023/02/05 01:22:49;;;;;;;1999.90;999.90;;;7.90;99.90;;;;;;5093655;28;20105;-71
2023/02/05 01:25:15;;;;;;;1999.90;999.90;;;7.90;99.90;;;;;;5094008;28;20527;-71
2023/02/05 01:27:40;;;;;;;1999.90;999.90;;;7.90;99.90;;;;;;5094310;28;20024;-78
2023/02/05 01:30:07;;;;;;;1999.90;999.90;;;7.90;99.90;;;;;;5094106;28;20055;-79
2023/02/05 01:32:32;;;;;;;1999.90;999.90;;;7.90;99.90;;;;;;5092661;28;20028;-71
2023/02/05 01:34:58;;;;;;;1999.90;999.90;;;7.90;99.90;;;;;;5094120;28;20463;-71
2023/02/05 01:37:24;;;;;;;1999.90;999.90;;;7.80;99.90;;;;;;5093856;28;20063;-71
2023/02/05 01:39:50;;;;;;;1999.90;999.90;;;7.90;99.90;;;;;;5075583;28;20024;-71
2023/02/05 01:42:25;;;;;;;1999.90;999.90;;;7.90;99.90;;;;;;5093078;28;20035;-77
2023/02/05 01:45:22;;;;;;;1999.90;999.90;;;7.90;99.90;;;;;;5073804;28;20036;-78
2023/02/05 01:47:59;;;;;;;1999.90;999.90;;;7.90;99.90;;;;;;5093932;28;20106;-71
2023/02/05 01:50:40;;;;;;;1999.90;999.90;;;7.90;99.90;;;;;;5093766;28;20020;-71
2023/02/05 01:53:10;;;;;;;1999.90;999.90;;;7.90;99.90;;;;;;5093709;28;20445;-78
2023/02/05 01:55:39;;;;;;;1999.90;999.90;;;7.90;99.90;;;;;;5093985;28;20027;-78
2023/02/05 01:58:05;;;;;;;1999.90;999.90;;;7.90;99.90;;;;;;5093653;28;20028;-71
2023/02/05 02:00:31;;;;;;;1999.90;999.90;;;7.90;99.90;;;;;;5093101;28;20017;-71
2023/02/05 02:02:58;;;;;;;1999.90;999.90;;;7.90;99.90;;;;;;5093337;28;20073;-71
2023/02/05 02:05:23;;;;;;;1999.90;999.90;;;7.90;99.90;;;;;;5093698;28;20024;-72
2023/02/05 02:07:49;;;;;;;1999.90;999.90;;;7.90;99.90;;;;;;5093522;28;20127;-78
2023/02/05 02:10:18;;;;;;;1999.90;999.90;;;7.90;99.90;;;;;;5093344;28;20031;-71
2023/02/05 02:12:46;;;;;;;1999.90;999.90;;;7.90;99.90;;;;;;5093293;28;20524;-71
2023/02/05 02:15:15;;;;;;;1999.90;999.90;;;7.90;99.90;;;;;;5093483;28;20020;-71
2023/02/05 02:17:44;;;;;;;1999.90;999.90;;;7.90;99.90;;;;;;5093554;28;20369;-71
2023/02/05 02:20:19;;;;;;;1999.90;999.90;;;7.80;99.90;;;;;;5093198;28;20469;-78
2023/02/05 02:22:54;;;;;;;1999.90;999.90;;;7.90;99.90;;;;;;5093054;28;20090;-77
2023/02/05 02:25:54;;;;;;;1999.90;999.90;;;7.90;99.90;;;;;;5093101;28;20070;-71
2023/02/05 02:28:40;;;;;;;1999.90;999.90;;;7.90;99.90;;;;;;5092979;28;20027;-71
2023/02/05 02:31:17;;;;;;;1999.90;999.90;;;7.80;99.90;;;;;;5093033;28;20074;-71
2023/02/05 02:33:49;;;;;;;1999.90;999.90;;;7.80;99.90;;;;;;5092976;28;20077;-78
2023/02/05 02:36:36;;;;;;;1999.90;999.90;;;7.80;99.90;;;;;;5092184;28;20059;-71
2023/02/05 02:39:11;;;;;;;1999.90;999.90;;;7.80;99.90;;;;;;5092510;28;20111;-71
2023/02/05 02:41:44;;;;;;;1999.90;999.90;;;7.80;99.90;;;;;;5093012;28;20479;-71
2023/02/05 02:44:16;;;;;;;1999.90;999.90;;;7.80;99.90;;;;;;5070750;28;20503;-71
2023/02/05 02:46:47;;;;;;;1999.90;999.90;;;7.80;99.90;;;;;;5072695;28;20036;-71
2023/02/05 02:49:22;;;;;;;1999.90;999.90;;;7.90;99.90;;;;;;5072563;28;20033;-78
2023/02/05 02:51:50;;;;;;;1999.90;999.90;;;7.80;99.90;;;;;;5072304;28;20024;-71
2023/02/05 02:54:20;;;;;;;1999.90;999.90;;;7.80;99.90;;;;;;5072536;28;20033;-71
2023/02/05 02:56:47;;;;;;;1999.90;999.90;;;7.80;99.90;;;;;;5072136;28;20044;-71
2023/02/05 02:59:17;;;;;;;1999.90;999.90;;;7.80;99.90;;;;;;5072171;28;20373;-71
2023/02/05 03:01:48;;;;;;;1999.90;999.90;;;7.80;99.90;;;;;;5072397;28;20031;-71
2023/02/05 03:04:25;;;;;;;1999.90;999.90;;;7.80;99.90;;;;;;5070952;28;20373;-71
2023/02/05 03:06:55;;;;;;;1999.90;999.90;;;7.90;99.90;;;;;;5071803;28;20017;-71
2023/02/05 03:09:30;;;;;;;1999.90;999.90;;;7.80;99.90;;;;;;5072320;28;20036;-71
2023/02/05 03:11:57;;;;;;;1999.90;999.90;;;7.80;99.90;;;;;;5072167;28;20028;-78
2023/02/05 03:14:23;;;;;;;1999.90;999.90;;;7.80;99.90;;;;;;5070776;28;20028;-71
2023/02/05 03:16:49;;;;;;;1999.90;999.90;;;7.80;99.90;;;;;;5072118;28;20435;-71
2023/02/05 03:19:15;;;;;;;1999.90;999.90;;;7.80;99.90;;;;;;5071684;28;20024;-71
2023/02/05 03:21:48;;;;;;;1999.90;999.90;;;7.80;99.90;;;;;;5072325;28;20074;-71
2023/02/05 03:24:14;;;;;;;1999.90;999.90;;;7.80;99.90;;;;;;5071982;28;20033;-71
2023/02/05 03:26:41;;;;;;;1999.90;999.90;;;7.80;99.90;;;;;;5071927;28;20087;-78
2023/02/05 03:29:10;;;;;;;1999.90;999.90;;;7.80;99.90;;;;;;5070690;28;20040;-71
2023/02/05 03:31:39;;;;;;;1999.90;999.90;;;7.80;99.90;;;;;;5072063;28;20053;-71
2023/02/05 03:34:18;;;;;;;1999.90;999.90;;;7.80;99.90;;;;;;5071779;28;20028;-71
2023/02/05 03:37:14;;;;;;;1999.90;999.90;;;7.80;99.90;;;;;;5076086;28;20373;-78
2023/02/05 03:40:04;;;;;;;1999.90;999.90;;;7.70;99.90;;;;;;5092092;28;20028;-71
2023/02/05 03:42:51;;;;;;;1999.90;999.90;;;7.80;99.90;;;;;;5070938;28;20020;-71
2023/02/05 03:45:27;;;;;;;1999.90;999.90;;;7.70;99.90;;;;;;5075770;28;20040;-71
2023/02/05 03:47:55;;;;;;;1999.90;999.90;;;7.70;99.90;;;;;;5094869;28;20027;-71
2023/02/05 03:50:33;;;;;;;1999.90;999.90;;;7.70;99.90;;;;;;5095442;28;20032;-79
2023/02/05 03:53:22;;;;;;;1999.90;999.90;;;7.70;99.90;;;;;;5095807;28;20095;-78
2023/02/05 03:55:54;;;;;;;1999.90;999.90;;;7.70;99.90;;;;;;5096202;28;20031;-71
2023/02/05 03:58:36;;;;;;;1999.90;999.90;;;7.70;99.90;;;;;;5094644;28;20035;-71
2023/02/05 04:01:04;;;;;;;1999.90;999.90;;;7.70;99.90;;;;;;5095840;28;20034;-71
2023/02/05 04:03:29;;;;;;;1999.90;999.90;;;7.60;99.90;;;;;;5096261;28;20056;-78
2023/02/05 04:05:55;;;;;;;1999.90;999.90;;;7.60;99.90;;;;;;5095609;28;20047;-78
2023/02/05 04:08:21;;;;;;;1999.90;999.90;;;7.60;99.90;;;;;;5095735;28;20100;-71
2023/02/05 04:10:46;;;;;;;1999.90;999.90;;;7.60;99.90;;;;;;5095476;28;20062;-71
2023/02/05 04:13:12;;;;;;;1999.90;999.90;;;7.60;99.90;;;;;;5095139;28;20104;-71
2023/02/05 04:15:38;;;;;;;1999.90;999.90;;;7.60;99.90;;;;;;5095713;28;20550;-71
2023/02/05 04:18:03;;;;;;;1999.90;999.90;;;7.60;99.90;;;;;;5093634;28;20032;-78
2023/02/05 04:20:29;;;;;;;1999.90;999.90;;;7.60;99.90;;;;;;5095408;28;20059;-78
2023/02/05 04:22:54;;;;;;;1999.90;999.90;;;7.60;99.90;;;;;;5095165;28;20016;-71
2023/02/05 04:25:20;;;;;;;1999.90;999.90;;;7.60;99.90;;;;;;5095702;28;20481;-71
2023/02/05 04:27:45;;;;;;;1999.90;999.90;;;7.60;99.90;;;;;;5095477;28;20024;-71
2023/02/05 04:30:12;;;;;;;1999.90;999.90;;;7.60;99.90;;;;;;5095104;28;20513;-78
2023/02/05 04:32:37;;;;;;;1999.90;999.90;;;7.60;99.90;;;;;;5095165;28;20526;-78
2023/02/05 04:35:03;;;;;;;1999.90;999.90;;;7.60;99.90;;;;;;5095322;28;20115;-71
2023/02/05 04:37:29;;;;;;;1999.90;999.90;;;7.60;99.90;;;;;;5094895;28;20024;-71
2023/02/05 04:39:54;;;;;;;1999.90;999.90;;;7.50;99.90;;;;;;5094916;28;20408;-71
2023/02/05 04:42:20;;;;;;;1999.90;999.90;;;7.60;99.90;;;;;;5093593;28;20048;-78
2023/02/05 04:44:45;;;;;;;1999.90;999.90;;;7.60;99.90;;;;;;5072859;28;20044;-77
2023/02/05 04:47:12;;;;;;;1999.90;999.90;;;7.50;99.90;;;;;;5074785;28;20032;-71
2023/02/05 04:49:39;;;;;;;1999.90;999.90;;;7.50;99.90;;;;;;5074855;28;20020;-70
2023/02/05 04:52:05;;;;;;;1999.90;999.90;;;7.50;99.90;;;;;;5074013;28;20020;-71
2023/02/05 04:54:31;;;;;;;1999.90;999.90;;;7.50;99.90;;;;;;5074689;28;20447;-71
2023/02/05 04:56:57;;;;;;;1999.90;999.90;;;7.50;99.90;;;;;;5074117;28;20020;-78
2023/02/05 04:59:23;;;;;;;1999.90;999.90;;;7.50;99.90;;;;;;5074160;28;20029;-71
2023/02/05 05:01:48;;;;;;;1999.90;999.90;;;7.50;99.90;;;;;;5074514;28;20013;-70
2023/02/05 05:04:14;;;;;;;1999.90;999.90;;;7.50;99.90;;;;;;5074472;28;20024;-70
2023/02/05 05:06:39;;;;;;;1999.90;999.90;;;7.60;99.90;;;;;;5074301;28;20053;-71
2023/02/05 05:09:05;;;;;;;1999.90;999.90;;;7.50;99.90;;;;;;5074252;28;20547;-78
2023/02/05 05:11:31;;;;;;;1999.90;999.90;;;7.50;99.90;;;;;;5074418;28;20123;-78
2023/02/05 05:13:56;;;;;;;1999.90;999.90;;;7.60;99.90;;;;;;5074408;28;20484;-71
2023/02/05 05:16:22;;;;;;;1999.90;999.90;;;7.50;99.90;;;;;;5074346;28;20028;-70
2023/02/05 05:18:50;;;;;;;1999.90;999.90;;;7.50;99.90;;;;;;5074227;28;20025;-71
2023/02/05 05:21:16;;;;;;;1999.90;999.90;;;7.60;99.90;;;;;;5074735;28;20028;-78
2023/02/05 05:23:41;;;;;;;1999.90;999.90;;;7.60;99.90;;;;;;5074217;28;20023;-78
2023/02/05 05:26:10;;;;;;;1999.90;999.90;;;7.50;99.90;;;;;;5074115;28;20021;-71
2023/02/05 05:28:35;;;;;;;1999.90;999.90;;;7.50;99.90;;;;;;5072701;28;20396;-71
2023/02/05 05:31:09;;;;;;;1999.90;999.90;;;7.50;99.90;;;;;;5074067;28;20031;-71
2023/02/05 05:33:36;;;;;;;1999.90;999.90;;;7.50;99.90;;;;;;5074396;28;20025;-71
2023/02/05 05:36:01;;;;;;;1999.90;999.90;;;7.50;99.90;;;;;;5073938;28;20032;-78
2023/02/05 05:38:27;;;;;;;1999.90;999.90;;;7.50;99.90;;;;;;5092578;28;20031;-78
2023/02/05 05:43:46;;;;;;;1999.90;999.90;;;7.40;99.90;;;;;;5082125;28;20028;-71
2023/02/05 05:46:14;;;;;;;1999.90;999.90;;;7.40;99.90;;;;;;5073487;28;20052;-71
2023/02/05 05:48:40;;;;;;;1999.90;999.90;;;7.40;99.90;;;;;;5073553;28;20025;-78
2023/02/05 05:51:05;;;;;;;1999.90;999.90;;;7.40;99.90;;;;;;5073102;28;20032;-78
2023/02/05 05:53:31;;;;;;;1999.90;999.90;;;7.40;99.90;;;;;;5073836;28;20033;-71
2023/02/05 05:55:57;;;;;;;1999.90;999.90;;;7.40;99.90;;;;;;5073602;28;20060;-71
2023/02/05 05:58:23;;;;;;;1999.90;999.90;;;7.40;99.90;;;;;;5073534;28;20033;-71
2023/02/05 06:00:49;;;;;;;1999.90;999.90;;;7.40;99.90;;;;;;5073247;28;20024;-77
2023/02/05 06:03:15;;;;;;;1999.90;999.90;;;7.40;99.90;;;;;;5073620;28;20094;-71
2023/02/05 06:05:41;;;;;;;1999.90;999.90;;;7.40;99.90;;;;;;5073549;28;20052;-71
2023/02/05 06:08:07;;;;;;;1999.90;999.90;;;7.40;99.90;;;;;;5073318;28;20054;-71
2023/02/05 06:10:32;;;;;;;1999.90;999.90;;;7.40;99.90;;;;;;5072230;28;20485;-71
2023/02/05 06:12:58;;;;;;;1999.90;999.90;;;7.40;99.90;;;;;;5072749;28;20028;-78
2023/02/05 06:15:25;;;;;;;1999.90;999.90;;;7.40;99.90;;;;;;5072017;28;20105;-78
2023/02/05 06:17:52;;;;;;;1999.90;999.90;;;7.30;99.90;;;;;;5073083;28;20074;-78
2023/02/05 06:20:17;;;;;;;1999.90;999.90;;;7.30;99.90;;;;;;5073014;28;20539;-71
2023/02/05 06:22:43;;;;;;;1999.90;999.90;;;7.30;99.90;;;;;;5072891;28;20401;-71
2023/02/05 06:25:09;;;;;;;1999.90;999.90;;;7.30;99.90;;;;;;5072985;28;20024;-71
2023/02/05 06:27:34;;;;;;;1999.90;999.90;;;7.30;99.90;;;;;;5072858;28;20048;-78
2023/02/05 06:30:00;;;;;;;1999.90;999.90;;;7.30;99.90;;;;;;5072717;28;20024;-71
2023/02/05 06:32:26;;;;;;;1999.90;999.90;;;7.30;99.90;;;;;;5072753;28;20091;-71
2023/02/05 06:34:52;;;;;;;1999.90;999.90;;;7.30;99.90;;;;;;5072557;28;20099;-71
2023/02/05 06:37:18;;;;;;;1999.90;999.90;;;7.30;99.90;;;;;;5081172;28;20062;-71
2023/02/05 06:39:43;;;;;;;1999.90;999.90;;;7.30;99.90;;;;;;5092871;28;20056;-78
2023/02/05 06:42:09;;;;;;;1999.90;999.90;;;7.30;99.90;;;;;;5092635;28;20460;-78
2023/02/05 06:44:35;;;;;;;1999.90;999.90;;;7.30;99.90;;;;;;5070474;28;20428;-71
2023/02/05 06:47:01;;;;;;;1999.90;999.90;;;7.40;99.90;;;;;;5090711;28;20551;-70
2023/02/05 06:49:26;;;;;;;1999.90;999.90;;;7.40;99.90;;;;;;5092656;28;20020;-71
2023/02/05 06:51:52;;;;;;;1999.90;999.90;;;7.40;99.90;;;;;;5092412;28;20016;-71
2023/02/05 06:54:18;;;;;;;1999.90;999.90;;;7.40;99.90;;;;;;5090430;28;20020;-78
2023/02/05 06:56:44;;;;;;;1999.90;999.90;;;7.50;99.90;;;;;;5092497;28;20536;-78
2023/02/05 06:59:09;;;;;;;1999.90;999.90;;;7.50;99.90;;;;;;5092282;28;20031;-71
2023/02/05 07:01:35;;;;;;;1999.90;999.90;;;7.60;99.90;;;;;;5092623;28;20073;-71
2023/02/05 07:04:01;;;;;;;1999.90;999.90;;;7.60;99.90;;;;;;5092405;28;20031;-71
2023/02/05 07:06:27;;;;;;;1999.90;999.90;;;7.60;99.90;;;;;;5092335;28;20048;-78
2023/02/05 07:08:54;;;;;;;1999.90;999.90;;;7.60;99.90;;;;;;5092134;28;20499;-78
2023/02/05 07:11:20;;;;;;;1999.90;999.90;;;7.60;99.90;;;;;;5092364;28;20028;-71
2023/02/05 07:13:46;;;;;;;1999.90;999.90;;;7.60;99.90;;;;;;5092648;28;20031;-71
2023/02/05 07:16:11;;;;;;;1999.90;999.90;;;7.60;99.90;;;;;;5092098;28;20016;-71
2023/02/05 07:18:37;;;;;;;1999.90;999.90;;;7.60;99.90;;;;;;5091802;28;20027;-78
2023/02/05 07:21:08;;;;;;;1999.90;999.90;;;7.60;99.90;;;;;;5091975;28;20024;-78
2023/02/05 07:23:34;;;;;;;1999.90;999.90;;;7.60;99.90;;;;;;5092200;28;20492;-71
2023/02/05 07:26:14;;;;;;;1999.90;999.90;;;7.50;99.90;;;;;;5092248;28;20541;-71
2023/02/05 07:28:40;;;;;;;1999.90;999.90;;;7.50;99.90;;;;;;5092006;28;20024;-71
2023/02/05 07:31:09;;;;;;;1999.90;999.90;;;7.50;99.90;;;;;;5092712;28;20164;-78
2023/02/05 07:33:35;;;;;;;1999.90;999.90;;;7.50;99.90;;;;;;5092401;28;20099;-78
2023/02/05 07:36:06;;;;;;;1999.90;999.90;;;7.50;99.90;;;;;;5092027;28;20103;-71
2023/02/05 07:38:33;;;;;;;1999.90;999.90;;;7.40;99.90;;;;;;5091802;28;20140;-71
2023/02/05 07:41:05;;;;;;;1999.90;999.90;;;7.30;99.90;;;;;;5091777;28;20028;-71
2023/02/05 07:43:31;;;;;;;1999.90;999.90;;;7.30;99.90;;;;;;5081242;28;20020;-71
2023/02/05 07:45:58;;;;;;;1999.90;999.90;;;7.40;99.90;;;;;;5080841;28;20416;-78
2023/02/05 07:48:24;;;;;;;1999.90;999.90;;;7.30;99.90;;;;;;5091784;28;20036;-78
2023/02/05 07:50:50;;;;;;;1999.90;999.90;;;7.30;99.90;;;;;;5091799;28;20150;-71
2023/02/05 07:53:15;;;;;;;1999.90;999.90;;;7.20;99.90;;;;;;5091604;28;20035;-71
2023/02/05 07:55:41;;;;;;;1999.90;999.90;;;7.20;99.90;;;;;;5091691;28;20051;-71
2023/02/05 07:58:07;;;;;;;1999.90;999.90;;;7.10;99.90;;;;;;5091862;28;20536;-78
2023/02/05 08:00:32;;;;;;;1999.90;999.90;;;7.20;99.90;;;;;;5091805;28;20035;-78
2023/02/05 08:02:58;;;;;;;1999.90;999.90;;;7.10;99.90;;;;;;5091617;28;20025;-70
2023/02/05 08:05:23;;;;;;;1999.90;999.90;;;7.20;99.90;;;;;;5092001;28;20024;-70
2023/02/05 08:07:49;;;;;;;1999.90;999.90;;;7.30;99.90;;;;;;5091814;28;20043;-70
2023/02/05 08:10:15;;;;;;;1999.90;999.90;;;7.40;99.90;;;;;;5091573;28;20020;-78
2023/02/05 08:12:40;;;;;;;1999.90;999.90;;;7.50;99.90;;;;;;5090502;28;20028;-78
2023/02/05 08:15:07;;;;;;;1999.90;999.90;;;7.60;99.90;;;;;;5091668;28;20032;-71
2023/02/05 08:17:33;;;;;;;1999.90;999.90;;;7.70;99.90;;;;;;5091842;28;20025;-71
2023/02/05 08:20:05;;;;;;;1999.90;999.90;;;7.80;99.90;;;;;;5091772;28;20024;-71
2023/02/05 08:22:35;;;;;;;1999.90;999.90;;;7.90;99.90;;;;;;5091598;28;20031;-71
2023/02/05 08:25:02;;;;;;;1999.90;999.90;;;8.00;99.90;;;;;;5091342;28;20499;-78
2023/02/05 08:27:27;;;;;;;1999.90;999.90;;;8.10;99.90;;;;;;5091778;28;20061;-78
2023/02/05 08:29:53;;;;;;;1999.90;999.90;;;8.10;99.90;;;;;;5091388;28;20099;-70
2023/02/05 08:32:19;;;;;;;1999.90;999.90;;;8.20;99.90;;;;;;5091193;28;20031;-71
2023/02/05 08:34:44;;;;;;;1999.90;999.90;;;8.30;99.90;;;;;;5095397;28;20032;-71
2023/02/05 08:37:10;;;;;;;1999.90;999.90;;;8.40;99.90;;;;;;5094641;28;20032;-78
2023/02/05 08:39:36;;;;;;;1999.90;999.90;;;8.50;99.90;;;;;;5095060;28;20024;-78
2023/02/05 08:42:02;;;;;;;1999.90;999.90;;;8.60;99.90;;;;;;5095249;28;20028;-71
2023/02/05 08:44:28;;;;;;;1999.90;999.90;;;8.60;99.90;;;;;;5072953;28;20028;-71
2023/02/05 08:46:54;;;;;;;1999.90;999.90;;;8.70;99.90;;;;;;5091984;28;20047;-71
2023/02/05 08:49:20;;;;;;;1999.90;999.90;;;8.80;99.90;;;;;;5095044;28;20032;-79
2023/02/05 08:51:46;;;;;;;1999.90;999.90;;;8.90;99.90;;;;;;5095231;28;20081;-78
2023/02/05 08:54:13;;;;;;;1999.90;999.90;;;9.10;99.90;;;;;;5094215;28;20028;-71
2023/02/05 08:56:41;;;;;;;1999.90;999.90;;;9.10;99.90;;;;;;5094885;28;20557;-71
2023/02/05 08:59:07;;;;;;;1999.90;999.90;;;9.20;99.90;;;;;;5094428;28;20085;-71
2023/02/05 09:01:36;;;;;;;1999.90;999.90;;;9.30;99.90;;;;;;5095065;28;20043;-71
2023/02/05 09:04:03;;;;;;;1999.90;999.90;;;9.40;99.90;;;;;;5094706;28;20024;-78
2023/02/05 09:06:29;;;;;;;1999.90;999.90;;;9.30;99.90;;;;;;5094619;28;20016;-78
2023/02/05 09:08:54;;;;;;;1999.90;999.90;;;9.30;99.90;;;;;;5094403;28;20089;-71
2023/02/05 09:11:21;;;;;;;1999.90;999.90;;;9.30;99.90;;;;;;5094743;28;20024;-71
2023/02/05 09:13:47;;;;;;;1999.90;999.90;;;9.30;99.90;;;;;;5093311;28;20051;-71
2023/02/05 09:16:13;;;;;;;1999.90;999.90;;;9.40;99.90;;;;;;5094422;28;20443;-78
2023/02/05 09:18:38;;;;;;;1999.90;999.90;;;9.30;99.90;;;;;;5094321;28;20487;-78
2023/02/05 09:21:09;;;;;;;1999.90;999.90;;;9.20;99.90;;;;;;5094376;28;20138;-71
2023/02/05 09:23:35;;;;;;;1999.90;999.90;;;9.10;99.90;;;;;;5094606;28;20024;-71
2023/02/05 09:26:01;;;;;;;1999.90;999.90;;;9.10;99.90;;;;;;5094397;28;20020;-71
2023/02/05 09:28:26;;;;;;;1999.90;999.90;;;9.10;99.90;;;;;;5094259;28;20039;-78
2023/02/05 09:30:52;;;;;;;1999.90;999.90;;;9.10;99.90;;;;;;5094054;28;20036;-78
2023/02/05 09:33:17;;;;;;;1999.90;999.90;;;9.10;99.90;;;;;;5094417;28;20024;-71
2023/02/05 09:35:43;;;;;;;1999.90;999.90;;;9.30;99.90;;;;;;5094486;28;20031;-71
2023/02/05 09:38:13;;;;;;;1999.90;999.90;;;9.60;99.90;;;;;;5093838;28;20032;-71
2023/02/05 09:40:47;;;;;;;1999.90;999.90;;;9.80;99.90;;;;;;5093676;28;20491;-71
2023/02/05 09:43:23;;;;;;;1999.90;999.90;;;10.20;99.90;;;;;;5085184;28;20025;-78
2023/02/05 09:46:02;;;;;;;1999.90;999.90;;;10.50;99.90;;;;;;5068530;28;20397;-78
2023/02/05 09:48:49;;;;;;;1999.90;999.90;;;11.00;99.90;;;;;;5093911;28;20028;-71
2023/02/05 09:51:18;;;;;;;1999.90;999.90;;;11.30;99.90;;;;;;5094029;28;20459;-71
2023/02/05 09:53:49;;;;;;;1999.90;999.90;;;11.20;99.90;;;;;;5093874;28;20056;-71
2023/02/05 09:56:17;;;;;;;1999.90;999.90;;;10.90;99.90;;;;;;5092941;28;20422;-71
2023/02/05 09:58:48;;;;;;;1999.90;999.90;;;10.60;99.90;;;;;;5093716;28;20029;-78
2023/02/05 10:01:28;;;;;;;1999.90;999.90;;;10.50;99.90;;;;;;5092384;28;20408;-71
2023/02/05 10:03:57;;;;;;;1999.90;999.90;;;10.40;99.90;;;;;;5092284;28;20038;-71
2023/02/05 10:06:37;;;;;;;1999.90;999.90;;;10.30;99.90;;;;;;5093500;28;20476;-70
2023/02/05 10:09:23;;;;;;;1999.90;999.90;;;10.20;99.90;;;;;;5091960;28;20118;-78
2023/02/05 10:11:57;;;;;;;1999.90;999.90;;;10.40;99.90;;;;;;5093532;28;20424;-70
2023/02/05 10:14:47;;;;;;;1999.90;999.90;;;10.40;99.90;;;;;;5093315;28;20027;-71
2023/02/05 10:18:04;;;;;;;1999.90;999.90;;;10.50;99.90;;;;;;5092801;28;20024;-71
2023/02/05 10:21:05;;;;;;;1999.90;999.90;;;10.30;99.90;;;;;;5047643;28;20180;-77
2023/02/05 10:24:13;;;;;;;1999.90;999.90;;;10.30;99.90;;;;;;5093595;28;20099;-77
2023/02/05 10:26:58;;;;;;;1999.90;999.90;;;10.10;99.90;;;;;;5075618;28;20119;-71
2023/02/05 10:29:48;;;;;;;1999.90;999.90;;;10.10;99.90;;;;;;5093453;28;20019;-70
2023/02/05 10:32:42;;;;;;;1999.90;999.90;;;10.30;99.90;;;;;;5093083;28;20024;-71
2023/02/05 10:35:43;;;;;;;1999.90;999.90;;;10.50;99.90;;;;;;5092630;28;20062;-71
2023/02/05 10:38:23;;;;;;;1999.90;999.90;;;10.50;99.90;;;;;;5091903;28;20384;-71
2023/02/05 10:40:53;;;;;;;1999.90;999.90;;;10.80;99.90;;;;;;5092555;28;20028;-70
2023/02/05 10:43:29;;;;;;;1999.90;999.90;;;10.90;99.90;;;;;;5083456;28;20077;-78
2023/02/05 10:45:55;;;;;;;1999.90;999.90;;;11.00;99.90;;;;;;5081572;28;20094;-71
2023/02/05 10:48:43;;;;;;;1999.90;999.90;;;11.10;99.90;;;;;;5091969;28;20150;-71
2023/02/05 10:51:23;;;;;;;1999.90;999.90;;;11.20;99.90;;;;;;5091375;28;20048;-71
2023/02/05 10:53:48;;;;;;;1999.90;999.90;;;11.30;99.90;;;;;;5092717;28;20077;-70
2023/02/05 10:56:18;;;;;;;1999.90;999.90;;;11.50;99.90;;;;;;5091509;28;20040;-70
2023/02/05 10:58:59;;;;;;;1999.90;999.90;;;11.70;99.90;;;;;;5092224;28;20023;-70
2023/02/05 11:01:36;;;;;;;1999.90;999.90;;;11.90;99.90;;;;;;5090535;28;20389;-71
2023/02/05 11:04:05;;;;;;;1999.90;999.90;;;12.10;99.90;;;;;;5092619;28;20550;-71
2023/02/05 11:06:43;;;;;;;1999.90;999.90;;;12.20;99.90;;;;;;5092434;28;20027;-70
2023/02/05 11:09:24;;;;;;;1999.90;999.90;;;12.40;99.90;;;;;;5092169;28;20028;-78
2023/02/05 11:12:23;;;;;;;1999.90;999.90;;;12.50;99.90;;;;;;5092436;28;20024;-70
2023/02/05 11:14:57;;;;;;;1999.90;999.90;;;12.40;99.90;;;;;;5076961;28;20205;-71
2023/02/05 11:17:30;;;;;;;1999.90;999.90;;;12.50;99.90;;;;;;5091057;28;20031;-78
2023/02/05 11:20:10;;;;;;;1999.90;999.90;;;12.50;99.90;;;;;;5092403;28;20047;-78
2023/02/05 11:22:38;;;;;;;1999.90;999.90;;;12.50;99.90;;;;;;5092099;28;20080;-78
2023/02/05 11:25:24;;;;;;;1999.90;999.90;;;12.30;99.90;;;;;;5091365;28;20025;-70
2023/02/05 11:28:03;;;;;;;1999.90;999.90;;;12.30;99.90;;;;;;5092456;28;20148;-71
2023/02/05 11:30:34;;;;;;;1999.90;999.90;;;12.70;99.90;;;;;;5091840;28;20020;-78
2023/02/05 11:33:26;;;;;;;1999.90;999.90;;;12.60;99.90;;;;;;5092070;28;20069;-71
2023/02/05 11:35:55;;;;;;;1999.90;999.90;;;12.40;99.90;;;;;;5092371;28;20028;-78
2023/02/05 11:38:31;;;;;;;1999.90;999.90;;;12.30;99.90;;;;;;5091618;28;20124;-71
2023/02/05 11:40:59;;;;;;;1999.90;999.90;;;12.30;99.90;;;;;;5091795;28;20031;-71
2023/02/05 11:43:47;;;;;;;1999.90;999.90;;;12.30;99.90;;;;;;5081951;28;20095;-78
2023/02/05 11:46:19;;;;;;;1999.90;999.90;;;12.30;99.90;;;;;;5083219;28;20527;-78
2023/02/05 11:49:00;;;;;;;1999.90;999.90;;;12.50;99.90;;;;;;5091867;28;20082;-77
2023/02/05 11:51:34;;;;;;;1999.90;999.90;;;12.70;99.90;;;;;;5092144;28;20024;-71
2023/02/05 11:54:03;;;;;;;1999.90;999.90;;;12.70;99.90;;;;;;5091867;28;20062;-71
2023/02/05 11:56:29;;;;;;;1999.90;999.90;;;12.70;99.90;;;;;;5091288;28;20024;-78
2023/02/05 11:59:01;;;;;;;1999.90;999.90;;;13.20;99.90;;;;;;5091753;28;20036;-78
2023/02/05 12:01:32;;;;;;;1999.90;999.90;;;13.80;99.90;;;;;;5091844;28;20027;-71
2023/02/05 12:04:13;;;;;;;1999.90;999.90;;;13.80;99.90;;;;;;5092122;28;20043;-78
2023/02/05 12:06:52;;;;;;;1999.90;999.90;;;13.90;99.90;;;;;;5091764;28;20024;-71
2023/02/05 12:09:22;;;;;;;1999.90;999.90;;;13.80;99.90;;;;;;5095289;28;20392;-78
2023/02/05 12:12:10;;;;;;;1999.90;999.90;;;13.50;99.90;;;;;;5095924;28;20024;-78
2023/02/05 12:14:41;;;;;;;1999.90;999.90;;;13.40;99.90;;;;;;5095670;28;20503;-78
2023/02/05 12:17:25;;;;;;;1999.90;999.90;;;13.60;99.90;;;;;;5095905;28;20422;-78
2023/02/05 12:20:13;;;;;;;1999.90;999.90;;;14.00;99.90;;;;;;5095762;28;20035;-71
2023/02/05 12:23:00;;;;;;;1999.90;999.90;;;13.60;99.90;;;;;;5094221;28;20020;-78